createdAt,value
2022-09-26T00:01:47.012Z,7.70
2022-09-26T00:04:23.321Z,5.20
2022-09-26T00:06:59.573Z,5.00
2022-09-26T00:12:01.042Z,5.55
2022-09-26T00:14:32.680Z,5.10
2022-09-26T00:17:03.256Z,4.70
2022-09-26T00:19:33.685Z,4.70
2022-09-26T00:22:06.732Z,4.30
2022-09-26T00:24:37.145Z,4.97
2022-09-26T00:27:07.882Z,4.25
2022-09-26T00:29:38.319Z,4.22
2022-09-26T00:32:08.775Z,4.60
2022-09-26T00:34:39.376Z,4.15
2022-09-26T00:37:12.421Z,4.97
2022-09-26T00:39:42.835Z,4.40
2022-09-26T00:42:15.918Z,4.50
2022-09-26T00:44:54.676Z,4.40
2022-09-26T00:47:45.514Z,4.95
2022-09-26T00:50:23.594Z,4.45
2022-09-26T00:53:01.855Z,4.30
2022-09-26T00:55:36.436Z,4.10
2022-09-26T00:58:13.363Z,4.18
2022-09-26T01:00:45.348Z,3.97
2022-09-26T01:03:16.650Z,4.28
2022-09-26T01:05:49.241Z,4.07
2022-09-26T01:08:29.594Z,4.28
2022-09-26T01:11:00.951Z,4.00
2022-09-26T01:13:33.854Z,3.97
2022-09-26T01:16:04.883Z,4.03
2022-09-26T01:18:36.572Z,3.90
2022-09-26T01:21:23.134Z,4.47
2022-09-26T01:24:27.456Z,4.07
2022-09-26T01:27:20.596Z,4.20
2022-09-26T01:30:14.634Z,5.45
2022-09-26T01:33:19.225Z,4.82
2022-09-26T01:36:07.114Z,5.07
2022-09-26T01:38:48.846Z,4.07
2022-09-26T01:41:35.249Z,3.90
2022-09-26T01:44:16.800Z,4.35
2022-09-26T01:46:55.314Z,4.00
2022-09-26T01:49:31.186Z,4.40
2022-09-26T01:52:07.357Z,4.18
2022-09-26T01:54:43.080Z,4.22
2022-09-26T01:57:20.692Z,4.38
2022-09-26T01:59:56.153Z,4.68
2022-09-26T02:02:34.394Z,4.68
2022-09-26T02:05:10.078Z,4.15
2022-09-26T02:07:45.533Z,4.53
2022-09-26T02:10:23.409Z,4.43
2022-09-26T02:13:00.414Z,4.22
2022-09-26T02:15:36.163Z,4.97
2022-09-26T02:18:17.358Z,4.35
2022-09-26T02:20:54.255Z,4.20
2022-09-26T02:23:25.050Z,4.63
2022-09-26T02:25:57.254Z,4.18
2022-09-26T02:28:28.668Z,3.88
2022-09-26T02:31:02.139Z,4.28
2022-09-26T02:33:36.109Z,4.10
2022-09-26T02:36:08.557Z,4.43
2022-09-26T02:38:40.247Z,4.38
2022-09-26T02:41:49.617Z,3.97
2022-09-26T02:44:36.649Z,4.38
2022-09-26T02:47:42.517Z,3.95
2022-09-26T02:50:29.119Z,4.38
2022-09-26T02:53:14.713Z,4.38
2022-09-26T02:56:04.960Z,3.47
2022-09-26T02:58:45.922Z,4.70
2022-09-26T03:01:22.695Z,4.45
2022-09-26T03:04:02.810Z,5.38
2022-09-26T03:06:40.297Z,4.35
2022-09-26T03:09:14.951Z,4.63
2022-09-26T03:11:47.314Z,4.70
2022-09-26T03:14:19.206Z,4.47
2022-09-26T03:16:53.726Z,4.80
2022-09-26T03:19:31.260Z,4.28
2022-09-26T03:22:05.706Z,4.30
2022-09-26T03:24:39.199Z,4.05
2022-09-26T03:27:10.012Z,4.38
2022-09-26T03:29:40.552Z,4.47
2022-09-26T03:32:16.312Z,4.20
2022-09-26T03:34:46.975Z,4.32
2022-09-26T03:37:20.614Z,4.55
2022-09-26T03:39:53.259Z,4.70
2022-09-26T03:42:29.099Z,4.20
2022-09-26T03:44:59.762Z,4.40
2022-09-26T03:47:34.061Z,4.63
2022-09-26T03:50:08.477Z,5.22
2022-09-26T03:52:41.529Z,4.60
2022-09-26T03:55:12.833Z,4.40
2022-09-26T03:57:43.227Z,4.65
2022-09-26T04:00:28.590Z,4.30
2022-09-26T04:02:59.106Z,4.20
2022-09-26T04:05:39.256Z,5.20
2022-09-26T04:08:13.217Z,4.70
2022-09-26T04:10:44.524Z,4.60
2022-09-26T04:13:39.741Z,4.88
2022-09-26T04:16:06.917Z,4.78
2022-09-26T04:18:38.721Z,4.75
2022-09-26T04:21:11.410Z,4.47
2022-09-26T04:23:46.324Z,4.38
2022-09-26T04:26:23.304Z,5.40
2022-09-26T04:28:55.603Z,5.25
2022-09-26T04:31:31.513Z,5.40
2022-09-26T04:34:12.226Z,5.05
2022-09-26T04:36:43.906Z,5.32
2022-09-26T04:39:17.082Z,4.60
2022-09-26T04:41:48.950Z,6.40
2022-09-26T04:44:19.426Z,5.38
2022-09-26T04:46:49.861Z,5.22
2022-09-26T04:49:23.854Z,5.43
2022-09-26T04:51:54.266Z,5.05
2022-09-26T04:54:27.522Z,5.03
2022-09-26T04:56:57.825Z,5.68
2022-09-26T04:59:28.319Z,5.50
2022-09-26T05:04:44.446Z,5.25
2022-09-26T05:07:16.457Z,5.25
2022-09-26T05:09:49.551Z,4.95
2022-09-26T05:12:21.976Z,5.20
2022-09-26T05:14:57.025Z,4.95
2022-09-26T05:17:27.975Z,4.93
2022-09-26T05:20:03.522Z,4.75
2022-09-26T05:22:49.642Z,4.45
2022-09-26T05:25:34.979Z,3.80
2022-09-26T05:28:05.493Z,3.67
2022-09-26T05:30:37.961Z,3.85
2022-09-26T05:33:08.751Z,3.80
2022-09-26T05:35:39.146Z,4.60
2022-09-26T05:38:09.727Z,4.75
2022-09-26T05:40:59.964Z,5.30
2022-09-26T05:43:33.442Z,4.78
2022-09-26T05:46:07.095Z,4.72
2022-09-26T05:48:43.108Z,5.45
2022-09-26T05:51:22.355Z,4.72
2022-09-26T05:53:53.426Z,4.80
2022-09-26T05:56:29.055Z,4.53
2022-09-26T05:59:02.533Z,4.10
2022-09-26T06:01:51.678Z,4.45
2022-09-26T06:04:36.402Z,4.60
2022-09-26T06:07:37.090Z,4.47
2022-09-26T06:10:11.259Z,4.25
2022-09-26T06:12:56.952Z,4.60
2022-09-26T06:15:27.519Z,4.45
2022-09-26T06:18:04.627Z,3.83
2022-09-26T06:20:36.308Z,8.43
2022-09-26T06:23:06.691Z,8.00
2022-09-26T06:25:41.153Z,3.38
2022-09-26T06:28:14.298Z,3.65
2022-09-26T06:30:44.784Z,3.20
2022-09-26T06:33:19.144Z,3.17
2022-09-26T06:36:11.804Z,3.28
2022-09-26T06:38:42.588Z,3.60
2022-09-26T06:41:18.750Z,3.25
2022-09-26T06:43:51.783Z,2.95
2022-09-26T06:46:42.521Z,3.88
2022-09-26T06:51:52.423Z,3.03
2022-09-26T06:54:23.960Z,3.10
2022-09-26T06:56:54.323Z,3.10
2022-09-26T06:59:27.505Z,3.60
2022-09-26T07:02:07.250Z,2.58
2022-09-26T07:05:04.145Z,2.85
2022-09-26T07:10:22.513Z,2.72
2022-09-26T07:13:05.301Z,2.90
2022-09-26T07:15:40.271Z,3.20
2022-09-26T07:18:29.791Z,3.08
2022-09-26T07:21:38.465Z,2.80
2022-09-26T07:24:14.394Z,3.92
2022-09-26T07:26:46.199Z,2.70
2022-09-26T07:29:16.652Z,2.83
2022-09-26T07:31:49.851Z,3.60
2022-09-26T07:34:40.915Z,3.80
2022-09-26T07:37:12.158Z,3.75
2022-09-26T07:39:42.535Z,3.78
2022-09-26T07:42:14.426Z,4.65
2022-09-26T07:47:50.761Z,3.35
2022-09-26T07:50:44.394Z,3.00
2022-09-26T07:53:27.386Z,3.28
2022-09-26T07:56:24.284Z,3.20
2022-09-26T07:59:05.435Z,3.45
2022-09-26T08:01:59.216Z,3.72
2022-09-26T08:04:43.979Z,2.78
2022-09-26T08:07:15.219Z,1.80
2022-09-26T08:09:56.204Z,2.20
2022-09-26T08:13:02.347Z,1.88
2022-09-26T08:15:43.516Z,1.60
2022-09-26T08:18:21.654Z,1.90
2022-09-26T08:20:54.875Z,2.15
2022-09-26T08:23:25.329Z,1.77
2022-09-26T08:26:14.466Z,1.60
2022-09-26T08:28:52.310Z,1.80
2022-09-26T08:31:23.219Z,1.80
2022-09-26T08:33:54.190Z,2.30
2022-09-26T08:36:29.250Z,1.77
2022-09-26T08:39:17.356Z,1.88
2022-09-26T08:42:24.107Z,1.80
2022-09-26T08:45:47.476Z,1.98
2022-09-26T08:48:51.837Z,2.10
2022-09-26T08:51:33.056Z,2.00
2022-09-26T08:54:14.282Z,2.30
2022-09-26T08:56:49.832Z,1.60
2022-09-26T08:59:28.522Z,1.60
2022-09-26T09:02:05.450Z,1.70
2022-09-26T09:05:00.009Z,1.90
2022-09-26T09:07:33.253Z,1.70
2022-09-26T09:10:08.404Z,1.70
2022-09-26T09:13:07.186Z,1.70
2022-09-26T09:16:15.844Z,1.83
2022-09-26T09:19:19.749Z,1.80
2022-09-26T09:22:50.707Z,2.08
2022-09-26T09:25:34.840Z,1.75
2022-09-26T09:28:24.095Z,1.73
2022-09-26T09:31:00.738Z,2.00
2022-09-26T09:33:55.530Z,2.00
2022-09-26T09:36:35.338Z,1.75
2022-09-26T09:39:32.060Z,1.67
2022-09-26T09:42:15.293Z,2.30
2022-09-26T09:44:49.851Z,2.03
2022-09-26T09:47:21.983Z,2.10
2022-09-26T09:49:53.801Z,1.75
2022-09-26T09:52:39.338Z,1.98
2022-09-26T09:55:25.153Z,1.70
2022-09-26T09:58:14.666Z,2.15
2022-09-26T10:00:52.472Z,1.98
2022-09-26T10:03:36.469Z,2.30
2022-09-26T10:06:44.785Z,1.95
2022-09-26T10:09:35.365Z,2.47
2022-09-26T10:12:17.363Z,1.73
2022-09-26T10:15:10.776Z,1.90
2022-09-26T10:21:22.450Z,2.05
2022-09-26T10:23:53.688Z,1.80
2022-09-26T10:26:39.944Z,1.98
2022-09-26T10:29:27.724Z,2.00
2022-09-26T10:32:00.655Z,2.10
2022-09-26T10:34:34.440Z,2.15
2022-09-26T10:37:24.512Z,2.22
2022-09-26T10:40:15.202Z,2.10
2022-09-26T10:42:47.456Z,1.98
2022-09-26T10:45:29.531Z,1.80
2022-09-26T10:48:22.280Z,2.00
2022-09-26T10:51:21.148Z,1.75
2022-09-26T10:54:07.941Z,2.45
2022-09-26T10:56:45.616Z,1.52
2022-09-26T10:59:19.274Z,2.00
2022-09-26T11:01:56.746Z,2.25
2022-09-26T11:04:42.294Z,2.00
2022-09-26T11:07:50.202Z,1.60
2022-09-26T11:10:41.560Z,1.90
2022-09-26T11:13:43.205Z,2.00
2022-09-26T11:16:20.427Z,3.60
2022-09-26T11:19:06.024Z,1.95
2022-09-26T11:21:45.795Z,1.58
2022-09-26T11:24:25.062Z,1.95
2022-09-26T11:27:08.511Z,1.80
2022-09-26T11:29:49.211Z,1.95
2022-09-26T11:35:06.340Z,2.72
2022-09-26T11:37:53.741Z,1.75
2022-09-26T11:40:43.395Z,1.60
2022-09-26T11:43:29.441Z,1.80
2022-09-26T11:46:31.518Z,1.75
2022-09-26T11:49:44.661Z,1.80
2022-09-26T11:52:53.523Z,1.70
2022-09-26T11:55:33.279Z,2.10
2022-09-26T11:58:15.053Z,1.60
2022-09-26T12:00:58.195Z,1.67
2022-09-26T12:03:51.527Z,1.92
2022-09-26T12:06:33.698Z,1.75
2022-09-26T12:09:22.255Z,1.60
2022-09-26T12:12:09.737Z,1.80
2022-09-26T12:14:49.333Z,2.28
2022-09-26T12:17:35.329Z,1.80
2022-09-26T12:20:20.986Z,1.63
2022-09-26T12:22:58.105Z,1.58
2022-09-26T12:25:39.047Z,1.60
2022-09-26T12:28:32.142Z,1.80
2022-09-26T12:31:17.241Z,1.75
2022-09-26T12:34:37.919Z,1.85
2022-09-26T12:37:23.453Z,2.10
2022-09-26T12:40:11.507Z,1.77
2022-09-26T12:43:29.086Z,1.67
2022-09-26T12:46:11.943Z,2.47
2022-09-26T12:48:56.876Z,1.92
2022-09-26T12:54:40.464Z,1.95
2022-09-26T12:57:24.809Z,1.90
2022-09-26T13:00:13.388Z,1.97
2022-09-26T13:03:02.555Z,2.45
2022-09-26T13:05:50.909Z,2.22
2022-09-26T13:08:30.595Z,2.22
2022-09-26T13:11:16.324Z,2.05
2022-09-26T13:14:27.450Z,2.50
2022-09-26T13:17:10.472Z,2.25
2022-09-26T13:19:49.802Z,2.33
2022-09-26T13:22:32.989Z,2.22
2022-09-26T13:25:10.118Z,1.98
2022-09-26T13:27:44.899Z,2.15
2022-09-26T13:30:22.761Z,2.10
2022-09-26T13:33:05.856Z,2.20
2022-09-26T13:35:41.789Z,2.35
2022-09-26T13:38:34.951Z,2.20
2022-09-26T13:41:20.812Z,2.38
2022-09-26T13:44:03.796Z,1.90
2022-09-26T13:46:40.777Z,2.00
2022-09-26T13:49:34.080Z,2.47
2022-09-26T13:52:16.381Z,2.28
2022-09-26T13:55:00.604Z,1.90
2022-09-26T13:57:41.857Z,2.23
2022-09-26T14:00:49.476Z,2.20
2022-09-26T14:03:49.740Z,2.10
2022-09-26T14:06:33.985Z,2.20
2022-09-26T14:09:24.552Z,2.10
2022-09-26T14:12:19.488Z,1.88
2022-09-26T14:14:55.301Z,1.90
2022-09-26T14:18:04.320Z,4.03
2022-09-26T14:20:41.003Z,3.15
2022-09-26T14:23:37.816Z,2.75
2022-09-26T14:26:11.640Z,2.40
2022-09-26T14:28:49.150Z,2.20
2022-09-26T14:32:01.534Z,2.38
2022-09-26T14:34:37.135Z,2.95
2022-09-26T14:37:27.610Z,2.80
2022-09-26T14:40:18.023Z,3.47
2022-09-26T14:43:36.824Z,2.67
2022-09-26T14:46:10.811Z,2.20
2022-09-26T14:48:43.346Z,2.37
2022-09-26T14:51:27.799Z,2.00
2022-09-26T14:54:02.864Z,2.30
2022-09-26T14:56:43.953Z,2.22
2022-09-26T14:59:40.369Z,2.17
2022-09-26T15:02:39.426Z,2.22
2022-09-26T15:05:26.447Z,2.60
2022-09-26T15:08:00.811Z,2.75
2022-09-26T15:10:43.141Z,2.47
2022-09-26T15:13:25.240Z,3.47
2022-09-26T15:16:10.129Z,2.47
2022-09-26T15:18:43.399Z,2.60
2022-09-26T15:21:21.697Z,3.13
2022-09-26T15:23:54.612Z,2.92
2022-09-26T15:26:28.045Z,2.78
2022-09-26T15:29:02.082Z,2.70
2022-09-26T15:31:41.084Z,3.07
2022-09-26T15:34:16.547Z,2.72
2022-09-26T15:36:48.825Z,2.95
2022-09-26T15:39:44.120Z,2.60
2022-09-26T15:42:44.071Z,2.40
2022-09-26T15:45:27.733Z,2.50
2022-09-26T15:48:00.068Z,2.50
2022-09-26T15:50:36.540Z,2.45
2022-09-26T15:53:13.057Z,2.70
2022-09-26T15:55:49.088Z,2.35
2022-09-26T15:58:25.901Z,2.22
2022-09-26T16:01:03.119Z,2.50
2022-09-26T16:03:50.487Z,2.63
2022-09-26T16:06:39.536Z,2.25
2022-09-26T16:09:19.631Z,2.50
2022-09-26T16:11:53.559Z,2.13
2022-09-26T16:14:28.617Z,2.75
2022-09-26T16:19:37.828Z,2.90
2022-09-26T16:22:45.135Z,2.33
2022-09-26T16:25:35.350Z,2.70
2022-09-26T16:28:25.434Z,2.53
2022-09-26T16:31:20.811Z,2.30
2022-09-26T16:33:54.894Z,2.47
2022-09-26T16:36:31.130Z,2.53
2022-09-26T16:39:04.075Z,2.25
2022-09-26T16:44:35.496Z,2.40
2022-09-26T16:47:09.559Z,2.25
2022-09-26T16:49:46.308Z,2.53
2022-09-26T16:52:30.859Z,2.35
2022-09-26T16:55:02.938Z,2.13
2022-09-26T16:57:36.313Z,2.55
2022-09-26T17:00:23.028Z,2.70
2022-09-26T17:02:56.566Z,2.58
2022-09-26T17:05:27.102Z,3.05
2022-09-26T17:08:00.537Z,2.72
2022-09-26T17:10:37.732Z,2.38
2022-09-26T17:13:08.968Z,2.65
2022-09-26T17:15:39.677Z,2.75
2022-09-26T17:18:14.685Z,2.45
2022-09-26T17:23:39.411Z,2.53
2022-09-26T17:26:15.426Z,2.65
2022-09-26T17:28:46.548Z,3.17
2022-09-26T17:31:21.557Z,2.30
2022-09-26T17:33:55.382Z,2.50
2022-09-26T17:36:28.901Z,2.30
2022-09-26T17:39:02.861Z,2.15
2022-09-26T17:41:34.657Z,2.28
2022-09-26T17:44:05.129Z,2.40
2022-09-26T17:46:38.586Z,2.55
2022-09-26T17:49:14.104Z,2.42
2022-09-26T17:51:44.647Z,2.10
2022-09-26T17:54:21.926Z,2.20
2022-09-26T17:56:52.440Z,2.30
2022-09-26T17:59:25.916Z,2.30
2022-09-26T18:02:00.828Z,2.28
2022-09-26T18:04:32.511Z,2.08
2022-09-26T18:07:06.534Z,2.30
2022-09-26T18:09:41.253Z,2.47
2022-09-26T18:12:18.754Z,2.10
2022-09-26T18:14:49.386Z,2.20
2022-09-26T18:17:22.109Z,2.47
2022-09-26T18:19:52.412Z,2.20
2022-09-26T18:22:25.917Z,4.20
2022-09-26T18:25:04.872Z,2.88
2022-09-26T18:27:39.821Z,2.90
2022-09-26T18:30:14.961Z,2.92
2022-09-26T18:32:47.749Z,3.17
2022-09-26T18:35:20.111Z,3.00
2022-09-26T18:37:50.783Z,3.50
2022-09-26T18:40:25.007Z,3.35
2022-09-26T18:42:56.730Z,3.20
2022-09-26T18:45:36.102Z,3.20
2022-09-26T18:48:08.304Z,6.22
2022-09-26T18:50:41.072Z,4.22
2022-09-26T18:53:16.583Z,4.03
2022-09-26T18:56:01.997Z,3.17
2022-09-26T18:58:34.125Z,2.95
2022-09-26T19:01:07.335Z,3.20
2022-09-26T19:03:41.069Z,3.40
2022-09-26T19:06:14.217Z,3.08
2022-09-26T19:08:46.664Z,3.08
2022-09-26T19:11:22.045Z,4.60
2022-09-26T19:13:54.530Z,3.63
2022-09-26T19:16:25.891Z,3.65
2022-09-26T19:18:56.548Z,3.50
2022-09-26T19:21:34.354Z,3.25
2022-09-26T19:24:10.134Z,3.83
2022-09-26T19:26:46.378Z,3.72
2022-09-26T19:29:22.395Z,3.60
2022-09-26T19:31:53.356Z,3.67
2022-09-26T19:34:24.247Z,3.67
2022-09-26T19:36:55.367Z,3.55
2022-09-26T19:39:26.118Z,3.53
2022-09-26T19:41:59.266Z,3.42
2022-09-26T19:44:29.902Z,3.00
2022-09-26T19:47:03.211Z,3.20
2022-09-26T19:49:34.338Z,3.10
2022-09-26T19:52:05.201Z,2.88
2022-09-26T19:54:36.129Z,3.20
2022-09-26T19:57:13.842Z,3.47
2022-09-26T19:59:44.383Z,3.17
2022-09-26T20:02:18.320Z,3.35
2022-09-26T20:04:49.071Z,3.10
2022-09-26T20:07:21.590Z,3.42
2022-09-26T20:09:52.234Z,3.13
2022-09-26T20:12:25.352Z,2.80
2022-09-26T20:14:56.164Z,3.00
2022-09-26T20:17:30.959Z,2.63
2022-09-26T20:20:01.687Z,3.00
2022-09-26T20:22:34.356Z,2.80
2022-09-26T20:25:06.755Z,2.85
2022-09-26T20:27:39.956Z,2.75
2022-09-26T20:30:28.529Z,2.72
2022-09-26T20:32:59.295Z,2.60
2022-09-26T20:35:35.273Z,5.07
2022-09-26T20:38:08.639Z,3.00
2022-09-26T20:40:40.003Z,3.10
2022-09-26T20:43:17.968Z,3.28
2022-09-26T20:45:48.578Z,2.80
2022-09-26T20:48:24.035Z,2.88
2022-09-26T20:50:54.925Z,3.13
2022-09-26T20:53:27.315Z,3.25
2022-09-26T20:55:58.129Z,2.70
2022-09-26T20:58:31.271Z,3.38
2022-09-26T21:01:02.335Z,2.85
2022-09-26T21:03:32.927Z,2.92
2022-09-26T21:06:03.466Z,3.22
2022-09-26T21:08:33.981Z,3.13
2022-09-26T21:11:05.102Z,2.97
2022-09-26T21:13:38.248Z,3.17
2022-09-26T21:16:10.459Z,2.90
2022-09-26T21:18:41.110Z,3.00
2022-09-26T21:21:19.454Z,2.95
2022-09-26T21:24:02.121Z,3.28
2022-09-26T21:26:33.851Z,3.10
2022-09-26T21:29:15.545Z,3.17
2022-09-26T21:31:49.427Z,3.40
2022-09-26T21:34:23.877Z,3.80
2022-09-26T21:36:57.200Z,3.60
2022-09-26T21:39:28.951Z,4.22
2022-09-26T21:42:01.931Z,3.83
2022-09-26T21:44:39.554Z,3.60
2022-09-26T21:47:10.456Z,4.00
2022-09-26T21:49:41.044Z,4.10
2022-09-26T21:52:21.491Z,4.22
2022-09-26T21:54:53.722Z,4.32
2022-09-26T21:57:26.657Z,4.40
2022-09-26T22:00:01.690Z,4.47
2022-09-26T22:02:33.199Z,4.10
2022-09-26T22:05:03.862Z,4.70
2022-09-26T22:07:34.449Z,4.28
2022-09-26T22:10:04.969Z,5.13
2022-09-26T22:12:35.825Z,4.47
2022-09-26T22:15:10.086Z,4.45
2022-09-26T22:17:40.753Z,4.43
2022-09-26T22:20:12.354Z,4.53
2022-09-26T22:22:42.929Z,4.75
2022-09-26T22:25:13.486Z,4.90
2022-09-26T22:27:44.217Z,4.75
2022-09-26T22:30:17.715Z,5.05
2022-09-26T22:32:48.234Z,5.15
2022-09-26T22:35:18.832Z,4.95
2022-09-26T22:37:50.377Z,4.47
2022-09-26T22:40:21.018Z,5.53
2022-09-26T22:42:53.161Z,5.22
2022-09-26T22:45:26.250Z,6.00
2022-09-26T22:47:56.727Z,5.32
2022-09-26T22:50:27.164Z,5.13
2022-09-26T22:52:57.744Z,4.80
2022-09-26T22:55:28.320Z,5.18
2022-09-26T22:57:58.845Z,5.57
2022-09-26T23:00:32.427Z,5.35
2022-09-26T23:03:03.398Z,5.22
2022-09-26T23:05:34.723Z,5.10
2022-09-26T23:08:05.746Z,5.30
2022-09-26T23:10:36.617Z,5.43
2022-09-26T23:13:07.187Z,5.25
2022-09-26T23:15:40.242Z,6.03
2022-09-26T23:18:10.792Z,5.50
2022-09-26T23:20:42.365Z,6.03
2022-09-26T23:23:13.963Z,6.10
2022-09-26T23:25:48.929Z,6.18
2022-09-26T23:28:20.728Z,6.60
2022-09-26T23:30:54.063Z,6.18
2022-09-26T23:33:24.785Z,5.80
2022-09-26T23:36:02.089Z,6.20
2022-09-26T23:38:32.727Z,6.05
2022-09-26T23:41:03.279Z,5.90
2022-09-26T23:43:33.900Z,5.85
2022-09-26T23:46:07.608Z,5.63
2022-09-26T23:48:38.280Z,5.85
2022-09-26T23:51:09.153Z,5.72
2022-09-26T23:53:39.769Z,5.20
2022-09-26T23:56:12.406Z,5.82
2022-09-26T23:58:44.000Z,5.43
